createdAt,value
2023-01-15T00:01:03.406Z,8.64
2023-01-15T00:03:05.345Z,8.63
2023-01-15T00:05:08.002Z,8.62
2023-01-15T00:07:10.193Z,8.61
2023-01-15T00:09:16.782Z,8.60
2023-01-15T00:11:19.662Z,8.66
2023-01-15T00:13:21.809Z,8.58
2023-01-15T00:15:24.121Z,8.59
2023-01-15T00:17:26.423Z,8.59
2023-01-15T00:19:28.581Z,8.59
2023-01-15T00:21:31.323Z,8.55
2023-01-15T00:23:55.642Z,8.62
2023-01-15T00:26:16.722Z,8.51
2023-01-15T00:28:18.925Z,8.49
2023-01-15T00:30:21.612Z,8.47
2023-01-15T00:32:24.291Z,8.48
2023-01-15T00:34:27.589Z,8.50
2023-01-15T00:36:29.873Z,8.47
2023-01-15T00:38:31.955Z,8.45
2023-01-15T00:40:34.142Z,8.49
2023-01-15T00:42:41.286Z,8.47
2023-01-15T00:44:44.410Z,8.48
2023-01-15T00:46:46.710Z,8.46
2023-01-15T00:48:49.828Z,8.45
2023-01-15T00:50:51.971Z,8.51
2023-01-15T00:52:54.227Z,8.48
2023-01-15T00:54:56.232Z,8.45
2023-01-15T00:56:58.484Z,8.46
2023-01-15T00:59:04.080Z,8.42
2023-01-15T01:01:07.133Z,8.46
2023-01-15T01:03:09.572Z,8.50
2023-01-15T01:05:14.367Z,8.51
2023-01-15T01:07:18.593Z,8.52
2023-01-15T01:09:20.698Z,8.54
2023-01-15T01:11:26.992Z,8.52
2023-01-15T01:13:29.195Z,8.54
2023-01-15T01:15:34.093Z,8.58
2023-01-15T01:17:39.037Z,8.56
2023-01-15T01:19:43.641Z,8.53
2023-01-15T01:21:46.986Z,8.46
2023-01-15T01:23:49.566Z,8.47
2023-01-15T01:25:52.009Z,8.39
2023-01-15T01:27:58.161Z,8.42
2023-01-15T01:30:02.016Z,8.39
2023-01-15T01:32:04.561Z,8.40
2023-01-15T01:34:06.872Z,8.37
2023-01-15T01:36:09.299Z,8.32
2023-01-15T01:38:11.402Z,8.36
2023-01-15T01:40:14.684Z,8.32
2023-01-15T01:42:18.034Z,8.33
2023-01-15T01:44:33.126Z,8.27
2023-01-15T01:46:36.811Z,8.27
2023-01-15T01:48:38.937Z,8.28
2023-01-15T01:50:42.539Z,8.26
2023-01-15T01:52:51.885Z,8.24
2023-01-15T01:54:54.693Z,8.27
2023-01-15T01:56:57.357Z,8.22
2023-01-15T01:58:59.803Z,8.27
2023-01-15T02:01:02.531Z,8.23
2023-01-15T02:03:08.068Z,8.20
2023-01-15T02:05:14.852Z,8.20
2023-01-15T02:07:17.529Z,8.19
2023-01-15T02:09:19.719Z,8.10
2023-01-15T02:11:24.646Z,8.16
2023-01-15T02:13:35.800Z,8.11
2023-01-15T02:15:48.317Z,8.12
2023-01-15T02:18:01.956Z,8.13
2023-01-15T02:20:40.619Z,8.10
2023-01-15T02:22:54.705Z,8.13
2023-01-15T02:25:16.935Z,8.07
2023-01-15T02:27:24.871Z,8.03
2023-01-15T02:29:55.878Z,7.99
2023-01-15T02:32:02.475Z,7.97
2023-01-15T02:34:13.733Z,8.01
2023-01-15T02:36:22.009Z,8.02
2023-01-15T02:38:28.775Z,8.05
2023-01-15T02:40:58.628Z,7.95
2023-01-15T02:43:02.170Z,8.01
2023-01-15T02:45:07.899Z,7.94
2023-01-15T02:47:12.133Z,7.95
2023-01-15T02:49:17.926Z,7.91
2023-01-15T02:51:26.125Z,7.93
2023-01-15T02:53:31.585Z,7.97
2023-01-15T02:55:41.817Z,8.01
2023-01-15T02:57:47.317Z,8.04
2023-01-15T02:59:54.048Z,8.10
2023-01-15T03:02:02.920Z,8.05
2023-01-15T03:04:17.708Z,7.96
2023-01-15T03:06:32.078Z,7.99
2023-01-15T03:08:36.001Z,7.99
2023-01-15T03:10:57.182Z,7.94
2023-01-15T03:13:03.473Z,7.99
2023-01-15T03:15:40.838Z,7.97
2023-01-15T03:17:56.879Z,7.95
2023-01-15T03:20:10.105Z,7.91
2023-01-15T03:22:32.626Z,7.82
2023-01-15T03:24:40.689Z,7.88
2023-01-15T03:26:43.978Z,7.90
2023-01-15T03:28:48.680Z,7.96
2023-01-15T03:30:50.766Z,7.96
2023-01-15T03:32:54.920Z,7.97
2023-01-15T03:34:57.950Z,7.96
2023-01-15T03:36:59.882Z,7.96
2023-01-15T03:39:04.636Z,7.94
2023-01-15T03:41:39.668Z,7.90
2023-01-15T03:43:48.448Z,7.90
2023-01-15T03:45:57.106Z,7.91
2023-01-15T03:48:20.416Z,7.91
2023-01-15T03:50:43.055Z,7.95
2023-01-15T03:52:58.500Z,7.94
2023-01-15T03:55:22.148Z,7.91
2023-01-15T03:57:47.702Z,7.89
2023-01-15T03:59:54.636Z,7.85
2023-01-15T04:01:57.945Z,7.90
2023-01-15T04:04:03.146Z,7.84
2023-01-15T04:06:06.857Z,7.87
2023-01-15T04:08:11.981Z,7.84
2023-01-15T04:10:14.015Z,7.84
2023-01-15T04:12:16.549Z,7.75
2023-01-15T04:14:22.291Z,7.80
2023-01-15T04:16:31.072Z,7.81
2023-01-15T04:18:33.853Z,7.79
2023-01-15T04:20:36.236Z,7.81
2023-01-15T04:22:38.582Z,7.81
2023-01-15T04:24:40.547Z,7.86
2023-01-15T04:26:42.556Z,7.82
2023-01-15T04:28:44.419Z,7.83
2023-01-15T04:30:47.553Z,7.79
2023-01-15T04:32:50.232Z,7.74
2023-01-15T04:34:52.139Z,7.77
2023-01-15T04:36:55.047Z,7.79
2023-01-15T04:38:59.416Z,7.76
2023-01-15T04:41:20.954Z,7.78
2023-01-15T04:43:41.260Z,7.74
2023-01-15T04:45:46.634Z,7.75
2023-01-15T04:47:48.450Z,7.80
2023-01-15T04:49:50.405Z,7.73
2023-01-15T04:51:52.420Z,7.73
2023-01-15T04:53:54.501Z,7.75
2023-01-15T04:56:05.093Z,7.73
2023-01-15T04:58:07.741Z,7.78
2023-01-15T05:00:10.255Z,7.78
2023-01-15T05:02:15.046Z,7.82
2023-01-15T05:04:17.633Z,7.70
2023-01-15T05:06:19.860Z,7.68
2023-01-15T05:08:21.875Z,7.67
2023-01-15T05:10:23.831Z,7.68
2023-01-15T05:12:26.552Z,7.71
2023-01-15T05:14:28.637Z,7.71
2023-01-15T05:16:31.994Z,7.72
2023-01-15T05:18:33.993Z,7.74
2023-01-15T05:20:38.821Z,7.79
2023-01-15T05:22:40.747Z,7.76
2023-01-15T05:24:43.027Z,7.80
2023-01-15T05:26:45.516Z,7.79
2023-01-15T05:28:48.536Z,7.75
2023-01-15T05:30:50.442Z,7.72
2023-01-15T05:32:52.324Z,7.76
2023-01-15T05:34:54.480Z,7.74
2023-01-15T05:36:56.639Z,7.69
2023-01-15T05:39:02.384Z,7.61
2023-01-15T05:41:28.523Z,7.46
2023-01-15T05:43:30.456Z,7.39
2023-01-15T05:45:36.269Z,7.39
2023-01-15T05:47:38.144Z,7.41
2023-01-15T05:49:39.951Z,7.36
2023-01-15T05:51:42.642Z,7.22
2023-01-15T05:53:44.669Z,7.28
2023-01-15T05:55:46.850Z,7.11
2023-01-15T05:57:49.341Z,7.09
2023-01-15T05:59:53.419Z,7.04
2023-01-15T06:01:56.013Z,7.03
2023-01-15T06:04:00.343Z,7.07
2023-01-15T06:06:02.900Z,7.02
2023-01-15T06:08:05.008Z,7.03
2023-01-15T06:10:07.704Z,6.92
2023-01-15T06:12:09.581Z,6.95
2023-01-15T06:14:12.816Z,6.83
2023-01-15T06:16:14.789Z,6.78
2023-01-15T06:18:17.029Z,6.82
2023-01-15T06:20:18.955Z,6.88
2023-01-15T06:22:20.802Z,6.73
2023-01-15T06:24:23.185Z,6.73
2023-01-15T06:26:25.157Z,6.78
2023-01-15T06:28:27.270Z,6.74
2023-01-15T06:30:29.210Z,6.80
2023-01-15T06:32:31.087Z,6.71
2023-01-15T06:34:33.097Z,6.76
2023-01-15T06:36:35.281Z,6.76
2023-01-15T06:38:38.007Z,6.69
2023-01-15T06:40:40.444Z,6.67
2023-01-15T06:43:01.114Z,6.52
2023-01-15T06:45:21.690Z,6.41
2023-01-15T06:47:24.833Z,6.51
2023-01-15T06:49:26.880Z,6.51
2023-01-15T06:51:31.051Z,6.51
2023-01-15T06:53:33.113Z,6.47
2023-01-15T06:55:35.183Z,6.47
2023-01-15T06:57:40.048Z,6.37
2023-01-15T06:59:41.910Z,6.41
2023-01-15T07:01:43.731Z,6.44
2023-01-15T07:03:45.701Z,6.31
2023-01-15T07:05:47.999Z,6.08
2023-01-15T07:07:49.837Z,6.15
2023-01-15T07:09:51.798Z,6.12
2023-01-15T07:11:53.658Z,6.12
2023-01-15T07:14:05.956Z,6.14
2023-01-15T07:16:27.068Z,6.00
2023-01-15T07:18:30.894Z,6.03
2023-01-15T07:20:32.947Z,6.05
2023-01-15T07:22:34.782Z,6.09
2023-01-15T07:24:36.673Z,6.17
2023-01-15T07:26:39.753Z,6.24
2023-01-15T07:28:41.938Z,6.28
2023-01-15T07:30:43.881Z,6.23
2023-01-15T07:32:45.773Z,6.21
2023-01-15T07:34:47.621Z,6.42
2023-01-15T07:36:49.536Z,6.61
2023-01-15T07:38:51.582Z,6.58
2023-01-15T07:41:15.182Z,6.65
2023-01-15T07:43:35.735Z,6.91
2023-01-15T07:46:05.736Z,7.02
2023-01-15T07:48:29.324Z,6.76
2023-01-15T07:50:31.208Z,6.83
2023-01-15T07:52:33.212Z,6.83
2023-01-15T07:54:35.106Z,6.76
2023-01-15T07:56:36.971Z,6.80
2023-01-15T07:58:39.242Z,6.84
2023-01-15T08:00:41.982Z,6.79
2023-01-15T08:02:46.064Z,6.53
2023-01-15T08:04:48.132Z,6.74
2023-01-15T08:06:50.145Z,6.95
2023-01-15T08:08:52.152Z,7.10
2023-01-15T08:11:23.362Z,7.06
2023-01-15T08:13:43.951Z,7.12
2023-01-15T08:15:46.695Z,7.26
2023-01-15T08:17:50.459Z,7.36
2023-01-15T08:19:52.372Z,7.44
2023-01-15T08:21:54.475Z,7.56
2023-01-15T08:23:56.412Z,7.70
2023-01-15T08:26:01.476Z,7.80
2023-01-15T08:28:03.814Z,7.87
2023-01-15T08:30:07.778Z,7.97
2023-01-15T08:32:09.914Z,8.08
2023-01-15T08:34:12.189Z,8.05
2023-01-15T08:36:16.029Z,8.05
2023-01-15T08:38:17.990Z,8.15
2023-01-15T08:40:20.115Z,8.16
2023-01-15T08:42:22.059Z,8.07
2023-01-15T08:44:24.913Z,8.23
2023-01-15T08:46:27.017Z,8.28
2023-01-15T08:48:32.038Z,8.42
2023-01-15T08:50:33.944Z,8.54
2023-01-15T08:52:36.377Z,8.59
2023-01-15T08:54:38.455Z,8.64
2023-01-15T08:56:40.488Z,8.71
2023-01-15T08:58:43.131Z,8.79
2023-01-15T09:00:45.089Z,8.91
2023-01-15T09:02:49.276Z,9.00
2023-01-15T09:04:52.940Z,9.03
2023-01-15T09:06:55.008Z,9.05
2023-01-15T09:08:57.175Z,9.21
2023-01-15T09:11:01.568Z,9.25
2023-01-15T09:13:04.578Z,9.36
2023-01-15T09:15:07.057Z,9.41
2023-01-15T09:17:11.883Z,9.40
2023-01-15T09:19:13.732Z,9.43
2023-01-15T09:21:15.854Z,9.51
2023-01-15T09:23:17.929Z,9.59
2023-01-15T09:25:20.358Z,9.68
2023-01-15T09:27:22.298Z,9.74
2023-01-15T09:29:24.097Z,9.75
2023-01-15T09:31:29.081Z,9.75
2023-01-15T09:33:31.243Z,9.83
2023-01-15T09:35:33.221Z,9.90
2023-01-15T09:37:35.366Z,9.93
2023-01-15T09:39:40.899Z,9.92
2023-01-15T09:42:10.321Z,9.93
2023-01-15T09:44:43.585Z,10.04
2023-01-15T09:47:07.043Z,10.04
2023-01-15T09:49:51.813Z,10.07
2023-01-15T09:52:14.362Z,10.18
2023-01-15T09:54:19.381Z,10.28
2023-01-15T09:56:25.636Z,10.35
2023-01-15T09:58:37.224Z,10.38
2023-01-15T10:00:43.869Z,10.39
2023-01-15T10:02:53.228Z,10.43
2023-01-15T10:05:00.325Z,10.45
2023-01-15T10:07:08.623Z,10.50
2023-01-15T10:09:20.590Z,10.65
2023-01-15T10:11:54.093Z,10.71
2023-01-15T10:14:26.492Z,10.75
2023-01-15T10:16:33.865Z,10.83
2023-01-15T10:18:36.076Z,10.87
2023-01-15T10:21:08.454Z,10.84
2023-01-15T10:23:13.573Z,10.86
2023-01-15T10:25:17.753Z,10.86
2023-01-15T10:27:23.174Z,10.92
2023-01-15T10:29:50.439Z,10.89
2023-01-15T10:31:55.130Z,10.94
2023-01-15T10:34:43.954Z,10.90
2023-01-15T10:37:08.523Z,10.97
2023-01-15T10:39:58.594Z,10.95
2023-01-15T10:42:14.919Z,10.97
2023-01-15T10:44:27.248Z,10.98
2023-01-15T10:46:33.882Z,10.99
2023-01-15T10:48:43.016Z,10.95
2023-01-15T10:50:46.290Z,11.01
2023-01-15T10:53:13.416Z,10.95
2023-01-15T10:55:29.551Z,10.98
2023-01-15T10:57:40.322Z,11.02
2023-01-15T10:59:56.205Z,11.04
2023-01-15T11:02:00.288Z,11.11
2023-01-15T11:04:02.524Z,11.06
2023-01-15T11:06:06.801Z,11.08
2023-01-15T11:09:08.769Z,11.07
2023-01-15T11:10:43.894Z,11.16
2023-01-15T11:13:09.412Z,11.21
2023-01-15T11:15:39.844Z,11.21
2023-01-15T11:18:05.583Z,11.27
2023-01-15T11:20:28.163Z,11.18
2023-01-15T11:22:31.075Z,11.33
2023-01-15T11:24:33.004Z,11.30
2023-01-15T11:26:35.207Z,11.28
2023-01-15T11:28:40.915Z,11.34
2023-01-15T11:30:45.412Z,11.36
2023-01-15T11:32:56.958Z,11.37
2023-01-15T11:35:09.265Z,11.36
2023-01-15T11:37:11.670Z,11.47
2023-01-15T11:39:24.643Z,11.47
2023-01-15T11:41:46.382Z,11.44
2023-01-15T11:44:17.334Z,11.47
2023-01-15T11:46:46.828Z,11.44
2023-01-15T11:49:07.458Z,11.47
2023-01-15T11:51:12.485Z,11.44
2023-01-15T11:53:23.030Z,11.42
2023-01-15T11:55:27.186Z,11.50
2023-01-15T11:57:32.835Z,11.48
2023-01-15T11:59:37.103Z,11.58
2023-01-15T12:01:49.891Z,11.60
2023-01-15T12:03:53.257Z,11.53
2023-01-15T12:06:05.736Z,11.44
2023-01-15T12:08:33.947Z,11.52
2023-01-15T12:11:17.494Z,11.51
2023-01-15T12:13:52.581Z,11.50
2023-01-15T12:16:36.218Z,11.53
2023-01-15T12:19:22.826Z,11.51
2023-01-15T12:21:33.631Z,11.62
2023-01-15T12:23:44.759Z,11.65
2023-01-15T12:26:05.577Z,11.68
2023-01-15T12:28:16.758Z,11.62
2023-01-15T12:30:56.271Z,11.62
2023-01-15T12:33:26.474Z,11.59
2023-01-15T12:36:00.352Z,11.63
2023-01-15T12:38:20.460Z,11.63
2023-01-15T12:40:29.185Z,11.63
2023-01-15T12:42:51.831Z,11.67
2023-01-15T12:45:06.170Z,11.62
2023-01-15T12:47:16.447Z,11.59
2023-01-15T12:49:37.221Z,11.53
2023-01-15T12:51:52.492Z,11.60
2023-01-15T12:54:11.430Z,11.63
2023-01-15T12:56:13.307Z,11.64
2023-01-15T12:58:31.130Z,11.60
2023-01-15T13:00:39.401Z,11.58
2023-01-15T13:02:57.389Z,11.61
2023-01-15T13:05:19.434Z,11.68
2023-01-15T13:07:36.145Z,11.56
2023-01-15T13:10:01.716Z,11.61
2023-01-15T13:12:04.057Z,11.65
2023-01-15T13:14:16.656Z,11.59
2023-01-15T13:16:44.367Z,11.55
2023-01-15T13:19:16.654Z,11.57
2023-01-15T13:21:20.535Z,11.61
2023-01-15T13:23:54.845Z,11.59
2023-01-15T13:26:07.093Z,11.66
2023-01-15T13:28:30.014Z,11.65
2023-01-15T13:30:52.477Z,11.64
2023-01-15T13:33:04.953Z,11.68
2023-01-15T13:35:28.312Z,11.58
2023-01-15T13:37:40.668Z,11.59
2023-01-15T13:39:45.344Z,11.63
2023-01-15T13:42:12.376Z,11.63
2023-01-15T13:44:23.140Z,11.64
2023-01-15T13:46:25.119Z,11.69
2023-01-15T13:48:35.202Z,11.65
2023-01-15T13:50:52.316Z,11.67
2023-01-15T13:53:12.976Z,11.60
2023-01-15T13:55:37.520Z,11.60
2023-01-15T13:57:41.583Z,11.64
2023-01-15T13:59:44.824Z,11.61
2023-01-15T14:01:47.106Z,11.61
2023-01-15T14:04:07.174Z,11.56
2023-01-15T14:06:10.011Z,11.59
2023-01-15T14:08:17.170Z,11.60
2023-01-15T14:10:22.299Z,11.58
2023-01-15T14:12:48.857Z,11.53
2023-01-15T14:15:23.928Z,11.50
2023-01-15T14:17:44.496Z,11.52
2023-01-15T14:20:04.793Z,11.49
2023-01-15T14:22:31.430Z,11.48
2023-01-15T14:25:00.800Z,11.45
2023-01-15T14:27:23.976Z,11.47
2023-01-15T14:30:04.550Z,11.40
2023-01-15T14:32:17.225Z,11.38
2023-01-15T14:34:28.525Z,11.37
2023-01-15T14:36:38.375Z,11.33
2023-01-15T14:38:50.434Z,11.27
2023-01-15T14:41:00.155Z,11.29
2023-01-15T14:43:10.322Z,11.23
2023-01-15T14:45:12.181Z,11.23
2023-01-15T14:47:29.443Z,11.12
2023-01-15T14:49:42.777Z,11.16
2023-01-15T14:51:50.273Z,11.07
2023-01-15T14:53:56.097Z,11.05
2023-01-15T14:56:20.179Z,10.93
2023-01-15T14:58:31.192Z,10.91
2023-01-15T15:00:37.963Z,10.89
2023-01-15T15:02:44.467Z,10.82
2023-01-15T15:04:54.151Z,10.82
2023-01-15T15:06:55.894Z,10.82
2023-01-15T15:09:04.940Z,10.74
2023-01-15T15:11:36.870Z,10.71
2023-01-15T15:13:46.855Z,10.65
2023-01-15T15:16:07.666Z,10.62
2023-01-15T15:18:12.536Z,10.63
2023-01-15T15:20:19.288Z,10.56
2023-01-15T15:22:25.009Z,10.54
2023-01-15T15:24:31.453Z,10.44
2023-01-15T15:26:35.866Z,10.45
2023-01-15T15:28:37.825Z,10.39
2023-01-15T15:30:46.188Z,10.31
2023-01-15T15:32:48.228Z,10.28
2023-01-15T15:34:53.039Z,10.22
2023-01-15T15:36:58.567Z,10.18
2023-01-15T15:39:19.375Z,10.12
2023-01-15T15:41:44.892Z,10.08
2023-01-15T15:44:12.741Z,10.01
2023-01-15T15:46:52.006Z,9.93
2023-01-15T15:48:58.045Z,9.95
2023-01-15T15:51:00.292Z,9.92
2023-01-15T15:53:06.979Z,9.88
2023-01-15T15:55:16.273Z,9.79
2023-01-15T15:57:20.038Z,9.80
2023-01-15T15:59:27.829Z,9.73
2023-01-15T16:01:29.921Z,9.77
2023-01-15T16:03:33.289Z,9.72
2023-01-15T16:05:35.965Z,9.67
2023-01-15T16:07:37.946Z,9.63
2023-01-15T16:09:42.646Z,9.60
2023-01-15T16:11:44.741Z,9.54
2023-01-15T16:13:49.836Z,9.49
2023-01-15T16:15:56.205Z,9.47
2023-01-15T16:18:03.550Z,9.46
2023-01-15T16:20:12.725Z,9.44
2023-01-15T16:22:18.041Z,9.40
2023-01-15T16:24:26.317Z,9.35
2023-01-15T16:26:38.966Z,9.28
2023-01-15T16:28:49.331Z,9.24
2023-01-15T16:31:05.425Z,9.18
2023-01-15T16:33:08.239Z,9.19
2023-01-15T16:35:21.082Z,9.11
2023-01-15T16:37:30.809Z,9.09
2023-01-15T16:39:32.701Z,9.10
2023-01-15T16:41:42.423Z,9.02
2023-01-15T16:44:05.954Z,8.99
2023-01-15T16:46:07.905Z,9.04
2023-01-15T16:48:24.565Z,9.00
2023-01-15T16:50:29.904Z,8.93
2023-01-15T16:52:51.281Z,8.83
2023-01-15T16:54:53.426Z,8.90
2023-01-15T16:56:57.145Z,8.81
2023-01-15T16:58:59.080Z,8.84
2023-01-15T17:01:02.491Z,8.66
2023-01-15T17:03:10.782Z,8.58
2023-01-15T17:05:23.830Z,8.53
2023-01-15T17:07:35.583Z,8.55
2023-01-15T17:09:38.169Z,8.54
2023-01-15T17:11:40.978Z,8.45
2023-01-15T17:13:45.284Z,8.45
2023-01-15T17:15:47.699Z,8.44
2023-01-15T17:17:51.394Z,8.44
2023-01-15T17:19:56.395Z,8.36
2023-01-15T17:21:58.461Z,8.34
2023-01-15T17:24:00.368Z,8.32
2023-01-15T17:26:04.430Z,8.24
2023-01-15T17:28:08.289Z,8.21
2023-01-15T17:30:12.758Z,8.15
2023-01-15T17:32:17.825Z,8.08
2023-01-15T17:34:23.553Z,8.09
2023-01-15T17:36:26.399Z,8.03
2023-01-15T17:38:28.283Z,7.98
2023-01-15T17:40:30.771Z,7.96
2023-01-15T17:42:32.785Z,8.01
2023-01-15T17:44:34.722Z,7.96
2023-01-15T17:46:37.165Z,8.02
2023-01-15T17:48:40.175Z,8.01
2023-01-15T17:50:44.277Z,8.11
2023-01-15T17:52:46.914Z,8.17
2023-01-15T17:55:09.869Z,8.13
2023-01-15T17:57:30.815Z,8.16
2023-01-15T17:59:51.496Z,8.11
2023-01-15T18:02:12.588Z,8.11
2023-01-15T18:04:50.715Z,8.06
2023-01-15T18:06:53.903Z,8.04
2023-01-15T18:08:58.803Z,8.05
2023-01-15T18:11:00.940Z,8.11
2023-01-15T18:13:07.761Z,8.11
2023-01-15T18:15:10.260Z,8.08
2023-01-15T18:17:12.108Z,8.06
2023-01-15T18:19:14.336Z,8.02
2023-01-15T18:21:16.772Z,7.96
2023-01-15T18:23:18.824Z,7.92
2023-01-15T18:25:20.783Z,7.95
2023-01-15T18:27:23.240Z,7.89
2023-01-15T18:29:25.380Z,7.86
2023-01-15T18:31:27.632Z,7.89
2023-01-15T18:33:30.317Z,7.89
2023-01-15T18:35:32.611Z,7.86
2023-01-15T18:37:34.618Z,7.82
2023-01-15T18:39:37.417Z,7.88
2023-01-15T18:41:40.520Z,7.91
2023-01-15T18:44:00.684Z,7.94
2023-01-15T18:46:25.164Z,7.98
2023-01-15T18:48:27.729Z,7.94
2023-01-15T18:50:32.044Z,8.01
2023-01-15T18:52:50.240Z,7.90
2023-01-15T18:54:52.306Z,7.91
2023-01-15T18:56:54.174Z,7.83
2023-01-15T18:58:56.857Z,7.83
2023-01-15T19:00:59.159Z,7.79
2023-01-15T19:03:01.031Z,7.74
2023-01-15T19:05:03.086Z,7.58
2023-01-15T19:07:04.936Z,7.58
2023-01-15T19:09:08.617Z,7.53
2023-01-15T19:11:13.707Z,7.55
2023-01-15T19:13:18.195Z,7.57
2023-01-15T19:15:39.485Z,7.54
2023-01-15T19:18:02.889Z,7.57
2023-01-15T19:20:05.970Z,7.48
2023-01-15T19:22:28.079Z,7.46
2023-01-15T19:24:30.484Z,7.44
2023-01-15T19:26:32.395Z,7.41
2023-01-15T19:28:34.310Z,7.40
2023-01-15T19:30:38.860Z,7.47
2023-01-15T19:32:40.934Z,7.50
2023-01-15T19:34:42.749Z,7.44
2023-01-15T19:36:44.961Z,7.43
2023-01-15T19:38:46.763Z,7.35
2023-01-15T19:40:50.288Z,7.26
2023-01-15T19:43:12.219Z,7.23
2023-01-15T19:45:33.496Z,7.25
2023-01-15T19:47:57.156Z,7.28
2023-01-15T19:50:17.708Z,7.25
2023-01-15T19:52:34.897Z,7.26
2023-01-15T19:54:55.536Z,7.19
2023-01-15T19:56:57.501Z,7.18
2023-01-15T19:58:59.385Z,7.21
2023-01-15T20:01:02.104Z,7.20
2023-01-15T20:03:05.348Z,7.14
2023-01-15T20:05:08.976Z,7.13
2023-01-15T20:07:11.620Z,7.12
2023-01-15T20:09:13.702Z,7.11
2023-01-15T20:11:15.969Z,7.15
2023-01-15T20:13:41.487Z,7.18
2023-01-15T20:15:45.872Z,7.18
2023-01-15T20:17:47.903Z,7.20
2023-01-15T20:19:49.967Z,7.25
2023-01-15T20:21:51.714Z,7.32
2023-01-15T20:23:53.548Z,7.32
2023-01-15T20:26:01.586Z,7.32
2023-01-15T20:28:03.445Z,7.40
2023-01-15T20:30:09.299Z,7.37
2023-01-15T20:32:11.239Z,7.45
2023-01-15T20:34:13.061Z,7.45
2023-01-15T20:36:15.436Z,7.50
2023-01-15T20:38:19.095Z,7.50
2023-01-15T20:40:23.864Z,7.53
2023-01-15T20:42:46.350Z,7.53
2023-01-15T20:44:55.348Z,7.41
2023-01-15T20:46:57.449Z,7.53
2023-01-15T20:49:17.673Z,7.50
2023-01-15T20:51:20.114Z,7.52
2023-01-15T20:53:21.945Z,7.50
2023-01-15T20:55:24.822Z,7.44
2023-01-15T20:57:26.664Z,7.51
2023-01-15T20:59:28.870Z,7.56
2023-01-15T21:01:30.904Z,7.51
2023-01-15T21:03:32.835Z,7.54
2023-01-15T21:05:34.767Z,7.63
2023-01-15T21:07:37.925Z,7.60
2023-01-15T21:09:39.827Z,7.62
2023-01-15T21:11:42.483Z,7.60
2023-01-15T21:13:46.031Z,7.59
2023-01-15T21:15:58.207Z,7.59
2023-01-15T21:18:00.360Z,7.58
2023-01-15T21:20:02.525Z,7.61
2023-01-15T21:22:04.667Z,7.64
2023-01-15T21:24:06.863Z,7.64
2023-01-15T21:26:08.970Z,7.57
2023-01-15T21:28:11.812Z,7.60
2023-01-15T21:30:15.828Z,7.63
2023-01-15T21:32:17.765Z,7.67
2023-01-15T21:34:20.556Z,7.73
2023-01-15T21:36:23.075Z,7.68
2023-01-15T21:38:25.246Z,7.75
2023-01-15T21:40:27.256Z,7.71
2023-01-15T21:42:55.628Z,7.70
2023-01-15T21:44:57.543Z,7.68
2023-01-15T21:47:02.061Z,7.69
2023-01-15T21:49:05.831Z,7.74
2023-01-15T21:51:07.839Z,7.75
2023-01-15T21:53:10.120Z,7.72
2023-01-15T21:55:13.314Z,7.67
2023-01-15T21:57:16.007Z,7.72
2023-01-15T21:59:20.114Z,7.72
2023-01-15T22:01:23.364Z,7.77
2023-01-15T22:03:25.548Z,7.75
2023-01-15T22:05:27.529Z,7.81
2023-01-15T22:07:29.899Z,7.84
2023-01-15T22:09:31.755Z,7.82
2023-01-15T22:11:45.837Z,7.85
2023-01-15T22:13:51.209Z,7.89
2023-01-15T22:15:54.575Z,7.94
2023-01-15T22:17:57.752Z,7.97
2023-01-15T22:20:00.409Z,7.99
2023-01-15T22:22:13.111Z,8.03
2023-01-15T22:24:15.437Z,8.03
2023-01-15T22:26:22.163Z,8.06
2023-01-15T22:28:24.489Z,8.15
2023-01-15T22:30:26.440Z,8.16
2023-01-15T22:32:28.579Z,8.15
2023-01-15T22:34:31.283Z,8.19
2023-01-15T22:36:33.515Z,8.16
2023-01-15T22:38:35.521Z,8.18
2023-01-15T22:40:37.569Z,8.19
2023-01-15T22:42:42.096Z,8.21
2023-01-15T22:44:45.214Z,8.20
2023-01-15T22:46:50.474Z,8.21
2023-01-15T22:48:52.812Z,8.17
2023-01-15T22:50:54.764Z,8.14
2023-01-15T22:52:56.630Z,8.13
2023-01-15T22:54:58.513Z,8.14
2023-01-15T22:57:00.920Z,8.12
2023-01-15T22:59:03.004Z,8.07
2023-01-15T23:01:05.683Z,8.01
2023-01-15T23:03:08.169Z,7.98
2023-01-15T23:05:11.867Z,8.01
2023-01-15T23:07:14.093Z,7.97
2023-01-15T23:09:16.081Z,8.00
2023-01-15T23:11:18.176Z,8.00
2023-01-15T23:13:21.191Z,8.01
2023-01-15T23:15:23.213Z,8.04
2023-01-15T23:17:25.886Z,8.00
2023-01-15T23:19:28.339Z,8.07
2023-01-15T23:21:30.715Z,8.13
2023-01-15T23:23:33.889Z,8.13
2023-01-15T23:25:35.985Z,8.15
2023-01-15T23:27:38.289Z,8.18
2023-01-15T23:29:40.956Z,8.22
2023-01-15T23:31:42.982Z,8.34
2023-01-15T23:33:45.433Z,8.43
2023-01-15T23:35:47.601Z,8.44
2023-01-15T23:37:49.857Z,8.53
2023-01-15T23:39:52.205Z,8.57
2023-01-15T23:42:12.560Z,8.65
2023-01-15T23:44:38.919Z,8.66
2023-01-15T23:46:41.259Z,8.75
2023-01-15T23:48:43.459Z,8.79
2023-01-15T23:50:45.421Z,8.85
2023-01-15T23:52:47.424Z,8.88
2023-01-15T23:54:49.412Z,8.94
2023-01-15T23:56:51.738Z,8.98
2023-01-15T23:58:54.006Z,9.02
